MV Schillig — ZDKV2 — position and weather

sailwx.info

Track history (hours):
 
Tides and Currents Weather Stations Pressure Air Temp Water Temp Dewpoint Dewpoint Depression Visibility Wind Speed Wind Dir Waves Ship Positions

MV Schillig

Last reported at 2018-Jun-20 19:00 UTC. Time now 2018-Jun-20 19:00 UTC.
Position N 51°38' E 001°45'.

Length 86 m; draft 3.8 m.

Type: Ship. MMSI: 236111817.

Date/timePositionNaut miles runAvg speedWind from/ knotsBaromVisibWave heightAir tempDewpointWater temp
2018-Jun-20 19:00N 51°38' E 001°45'4 7.7
2018-Jun-20 18:30N 51°42' E 001°44'4 7.9
2018-Jun-20 18:00N 51°46' E 001°43'4 8.2
2018-Jun-20 17:31N 51°50' E 001°43'4 8.6
2018-Jun-20 17:01N 51°54' E 001°44'5 9.3
2018-Jun-20 16:30N 51°59' E 001°44'5 9.7
2018-Jun-20 16:01N 52°04' E 001°46'510.0
2018-Jun-20 15:30N 52°09' E 001°47'510.2
2018-Jun-20 15:00N 52°14' E 001°48'510.4
2018-Jun-20 14:30N 52°19' E 001°49'510.5
2018-Jun-20 14:00N 52°24' E 001°50'911.1
2018-Jun-20 13:14N 52°33' E 001°52'100 8.6
2018-Jun-20 01:34N 53°54' E 000°15'2 8.0
2018-Jun-20 01:23N 53°56' E 000°13'7 8.1
2018-Jun-20 00:28N 54°02' E 000°06'4 8.7
2018-Jun-20 00:00N 54°05' E 000°02'4 8.9
2018-Jun-19 23:30N 54°09' W 000°02'5 9.5
2018-Jun-19 23:00N 54°12' W 000°08'5 9.8
2018-Jun-19 22:31N 54°16' W 000°13'5 9.8
2018-Jun-19 22:00N 54°20' W 000°18'510.0
2018-Jun-19 21:31N 54°24' W 000°24'5 0.2
2018-Jun-18 14:12N 54°28' W 000°28'211.6
2018-Jun-18 14:00N 54°26' W 000°26'611.7
2018-Jun-18 13:31N 54°22' W 000°19'611.6
2018-Jun-18 13:01N 54°17' W 000°12'611.7
2018-Jun-18 12:30N 54°13' W 000°06'612.2
2018-Jun-18 12:00N 54°08' E 000°01'611.7
2018-Jun-18 11:30N 54°03' E 000°06'711.0
2018-Jun-18 10:53N 53°57' E 000°12'52 9.1
2018-Jun-18 05:11N 53°17' E 001°07'211.4
2018-Jun-18 05:00N 53°15' E 001°09'611.8
2018-Jun-18 04:30N 53°11' E 001°16'612.0
2018-Jun-18 04:00N 53°07' E 001°23'611.8
2018-Jun-18 03:30N 53°03' E 001°30'611.5
2018-Jun-18 03:01N 52°58' E 001°35'611.4
2018-Jun-18 02:31N 52°53' E 001°40'510.6
2018-Jun-18 02:01N 52°48' E 001°44'5 9.9
2018-Jun-18 01:30N 52°44' E 001°48'5 9.0
2018-Jun-18 01:00N 52°40' E 001°51'5 7.7
2018-Jun-18 00:20N 52°35' E 001°53'17 7.6
2018-Jun-17 22:07N 52°18' E 001°51'1 8.3
2018-Jun-17 22:00N 52°17' E 001°51'4 8.7
2018-Jun-17 21:30N 52°13' E 001°50'5 9.5
2018-Jun-17 21:01N 52°08' E 001°50'510.2
2018-Jun-17 20:31N 52°03' E 001°50'5 9.7
2018-Jun-17 20:00N 51°58' E 001°49'612.0
2018-Jun-17 19:30N 51°52' E 001°48'611.9
2018-Jun-17 19:00N 51°46' E 001°49'612.0
2018-Jun-17 18:30N 51°40' E 001°49'612.2
2018-Jun-17 18:00N 51°34' E 001°48'612.5
2018-Jun-17 17:30N 51°28' E 001°46'612.9
2018-Jun-17 17:00N 51°22' E 001°42'713.3
2018-Jun-17 16:30N 51°15' E 001°39'612.5
2018-Jun-17 16:00N 51°09' E 001°36'5 9.7
2018-Jun-17 15:30N 51°05' E 001°39'713.6
2018-Jun-17 15:01N 50°59' E 001°33'713.7
2018-Jun-17 14:30N 50°54' E 001°27'2911.8
2018-Jun-17 12:04N 50°31' E 000°59'3912.0
2018-Jun-17 08:51N 50°20' E 000°01'610.6
2018-Jun-17 08:15N 50°19' W 000°09'310.1
2018-Jun-17 07:58N 50°18' W 000°13'85 9.3
2018-Jun-16 22:52N 49°55' W 002°21'1213.0
2018-Jun-16 21:58N 49°51' W 002°38'712.9
2018-Jun-16 21:24N 49°49' W 002°48'512.7
2018-Jun-16 21:01N 49°47' W 002°56'612.5
2018-Jun-16 20:30N 49°44' W 003°04'612.3
2018-Jun-16 20:00N 49°41' W 003°12'612.2
2018-Jun-16 19:28N 49°37' W 003°21'612.1
2018-Jun-16 18:58N 49°34' W 003°29'1711.7
2018-Jun-16 17:30N 49°25' W 003°52'611.4
2018-Jun-16 17:00N 49°23' W 003°59'710.9
2018-Jun-16 16:21N 49°19' W 004°09'48 9.0
2018-Jun-16 11:01N 48°55' W 005°12'0 8.5
2018-Jun-16 10:58N 48°55' W 005°13'47 7.8
2018-Jun-16 04:58N 48°10' W 005°30'1111.0
2018-Jun-16 03:58N 47°59' W 005°24'2411.5
2018-Jun-16 01:54N 47°37' W 005°12'232 9.8
2018-Jun-15 02:14N 43°58' W 003°21'2 9.6
2018-Jun-15 01:59N 43°55' W 003°20'5 9.7
2018-Jun-15 01:30N 43°51' W 003°18'510.1
2018-Jun-15 01:01N 43°47' W 003°16'510.4
2018-Jun-15 00:31N 43°42' W 003°13'510.3
2018-Jun-15 00:01N 43°37' W 003°11'510.2
2018-Jun-14 23:30N 43°32' W 003°08'5 9.7
2018-Jun-14 23:00N 43°27' W 003°07'5 9.9
2018-Jun-14 22:31N 43°23' W 003°05'2 3.2
2018-Jun-14 22:00N 43°21' W 003°04'0 0.0
2018-Jun-14 21:30N 43°21' W 003°04'0 0.0
2018-Jun-14 21:00N 43°21' W 003°04'0 0.0
2018-Jun-14 20:30N 43°21' W 003°04'0 0.0
2018-Jun-14 20:00N 43°21' W 003°04'0 0.0
2018-Jun-14 19:30N 43°21' W 003°04'0 0.0
2018-Jun-14 19:00N 43°21' W 003°04'0 0.0
2018-Jun-14 18:27N 43°21' W 003°04'0 0.0
2018-Jun-14 18:00N 43°21' W 003°04'0 0.0
2018-Jun-14 17:30N 43°21' W 003°04'0 0.0
2018-Jun-14 17:00N 43°21' W 003°04'0 0.0
2018-Jun-14 16:30N 43°21' W 003°04'0 0.0
2018-Jun-14 16:00N 43°21' W 003°04'0 0.0
2018-Jun-14 15:30N 43°21' W 003°04'0 0.0
2018-Jun-14 15:00N 43°21' W 003°04'0 0.0
2018-Jun-14 14:30N 43°21' W 003°04'0 0.0
2018-Jun-14 14:00N 43°21' W 003°04'0 0.0
2018-Jun-14 13:30N 43°21' W 003°04'0 0.0
2018-Jun-14 13:00N 43°21' W 003°04'0 0.0
2018-Jun-14 12:30N 43°21' W 003°04'0 0.0
2018-Jun-14 12:00N 43°21' W 003°04'0 0.0
2018-Jun-14 11:30N 43°21' W 003°04'0 0.0
2018-Jun-14 11:00N 43°21' W 003°04'0 0.0
2018-Jun-14 10:30N 43°21' W 003°04'0 0.0
2018-Jun-14 09:57N 43°21' W 003°04'0 0.0
2018-Jun-14 09:30N 43°21' W 003°04'0 0.0
2018-Jun-14 09:00N 43°21' W 003°04'0 0.0
2018-Jun-14 08:27N 43°21' W 003°04'0 0.0
2018-Jun-14 08:00N 43°21' W 003°04'0 0.0
2018-Jun-14 07:30N 43°21' W 003°04'0 0.0
2018-Jun-14 07:00N 43°21' W 003°04'0 0.0
2018-Jun-14 06:30N 43°21' W 003°04'0 0.0
2018-Jun-14 06:00N 43°21' W 003°04'0 0.0
2018-Jun-14 05:30N 43°21' W 003°04'0 0.0
2018-Jun-14 05:00N 43°21' W 003°04'0 0.0
2018-Jun-14 04:30N 43°21' W 003°04'0 0.0
2018-Jun-14 04:00N 43°21' W 003°04'0 0.0
2018-Jun-14 03:27N 43°21' W 003°04'0 0.0
2018-Jun-14 03:00N 43°21' W 003°04'0 0.0
2018-Jun-14 02:27N 43°21' W 003°04'0 0.0
2018-Jun-14 02:00N 43°21' W 003°04'0 0.0
2018-Jun-14 01:30N 43°21' W 003°04'0 0.0
2018-Jun-14 01:00N 43°21' W 003°04'0 0.0
2018-Jun-14 00:24N 43°21' W 003°04'0 0.0
2018-Jun-14 00:00N 43°21' W 003°04'0 0.0
2018-Jun-13 23:30N 43°21' W 003°04'0 0.0
2018-Jun-13 23:00N 43°21' W 003°04'0 0.5
2018-Jun-13 22:30N 43°21' W 003°04'2 4.0
2018-Jun-13 22:01N 43°23' W 003°05'2 3.4
2018-Jun-13 21:28N 43°23' W 003°08'0 0.1
2018-Jun-13 20:55N 43°23' W 003°08'0 0.1
2018-Jun-13 20:25N 43°23' W 003°08'0 0.0
2018-Jun-13 19:58N 43°23' W 003°08'0 0.0
2018-Jun-13 19:28N 43°23' W 003°08'0 0.0
2018-Jun-13 18:58N 43°23' W 003°08'0 0.0
2018-Jun-13 18:28N 43°23' W 003°08'0 0.0
2018-Jun-13 17:58N 43°23' W 003°08'0 0.0
2018-Jun-13 17:28N 43°23' W 003°08'0 0.0
2018-Jun-13 16:58N 43°23' W 003°08'0 0.0
2018-Jun-13 16:28N 43°23' W 003°08'0 0.0
2018-Jun-13 15:55N 43°23' W 003°08'0 0.0
2018-Jun-13 15:28N 43°23' W 003°08'0 0.0
2018-Jun-13 14:55N 43°23' W 003°08'0 0.0
2018-Jun-13 14:28N 43°23' W 003°08'0 0.0
2018-Jun-13 13:49N 43°23' W 003°08'0 0.0
2018-Jun-13 13:28N 43°23' W 003°08'0 0.0
2018-Jun-13 12:58N 43°23' W 003°08'0 0.1
2018-Jun-13 12:28N 43°23' W 003°08'0 0.0
2018-Jun-13 11:58N 43°23' W 003°08'0 0.1
2018-Jun-13 11:28N 43°23' W 003°08'0 0.0
2018-Jun-13 10:58N 43°23' W 003°08'0 0.0
2018-Jun-13 10:28N 43°23' W 003°08'0 0.1
2018-Jun-13 09:58N 43°23' W 003°08'0 0.0
2018-Jun-13 09:28N 43°23' W 003°08'0 0.0
2018-Jun-13 08:58N 43°23' W 003°08'0 0.0
2018-Jun-13 08:28N 43°23' W 003°08'0 0.0
2018-Jun-13 07:58N 43°23' W 003°08'0 0.0
2018-Jun-13 07:28N 43°23' W 003°08'0 0.0
2018-Jun-13 06:58N 43°23' W 003°08'0 0.0
2018-Jun-13 06:28N 43°23' W 003°08'0 0.0
2018-Jun-13 05:58N 43°23' W 003°08'0 0.0
2018-Jun-13 05:28N 43°23' W 003°08'0 0.0
2018-Jun-13 04:58N 43°23' W 003°08'0 0.0
2018-Jun-13 04:28N 43°23' W 003°08'0 0.0
2018-Jun-13 03:58N 43°23' W 003°08'0 0.0
2018-Jun-13 03:28N 43°23' W 003°08'0 0.0
2018-Jun-13 02:58N 43°23' W 003°08'0 0.0
2018-Jun-13 02:28N 43°23' W 003°08'0 0.0
2018-Jun-13 01:58N 43°23' W 003°08'0 0.0
2018-Jun-13 01:28N 43°23' W 003°08'0 0.0
2018-Jun-13 00:58N 43°23' W 003°08'0 0.0
2018-Jun-13 00:28N 43°23' W 003°08'0 0.0
2018-Jun-12 23:58N 43°23' W 003°08'0 0.0
2018-Jun-12 23:28N 43°23' W 003°08'0 0.0
2018-Jun-12 22:58N 43°23' W 003°08'0 0.0
2018-Jun-12 22:28N 43°23' W 003°08'0 0.0
2018-Jun-12 21:58N 43°23' W 003°08'0 0.0
2018-Jun-12 21:25N 43°23' W 003°08'0 0.0
2018-Jun-12 20:58N 43°23' W 003°08'0 0.0
2018-Jun-12 20:28N 43°23' W 003°08'0 0.0
2018-Jun-12 19:58N 43°23' W 003°08'0 0.0
2018-Jun-12 19:28N 43°23' W 003°08'0 0.0
2018-Jun-12 18:58N 43°23' W 003°08'0 0.0
2018-Jun-12 18:28N 43°23' W 003°08'0 0.0
2018-Jun-12 17:58N 43°23' W 003°08'0 0.0
2018-Jun-12 17:28N 43°23' W 003°08'0 0.0
2018-Jun-12 16:58N 43°23' W 003°08'0 0.0
2018-Jun-12 16:25N 43°23' W 003°08'0 0.0
2018-Jun-12 15:58N 43°23' W 003°08'0 0.5
2018-Jun-12 15:30N 43°22' W 003°08'1 1.0
2018-Jun-12 14:59N 43°22' W 003°07'0 0.0
2018-Jun-12 14:26N 43°22' W 003°07'0 0.0
2018-Jun-12 13:59N 43°22' W 003°07'0 0.0
2018-Jun-12 13:29N 43°22' W 003°07'0 0.0
2018-Jun-12 12:56N 43°22' W 003°07'0 0.0
2018-Jun-12 12:29N 43°22' W 003°07'0 0.0
2018-Jun-12 11:59N 43°22' W 003°07'0 0.0
2018-Jun-12 11:29N 43°22' W 003°07'0 0.0
2018-Jun-12 10:59N 43°22' W 003°07'0 0.0
2018-Jun-12 10:29N 43°22' W 003°07'0 0.0
2018-Jun-12 09:59N 43°22' W 003°07'0 0.0
2018-Jun-12 09:29N 43°22' W 003°07'0 0.0
2018-Jun-12 08:56N 43°22' W 003°07'0 0.0
2018-Jun-12 08:29N 43°22' W 003°07'0 0.0
2018-Jun-12 07:59N 43°22' W 003°07'0 0.0
2018-Jun-12 07:29N 43°22' W 003°07'0 0.0
2018-Jun-12 06:59N 43°22' W 003°07'0 0.0
2018-Jun-12 06:29N 43°22' W 003°07'0 0.0
2018-Jun-12 06:01N 43°22' W 003°07'2 3.9
2018-Jun-12 05:30N 43°24' W 003°07'510.3
2018-Jun-12 05:01N 43°29' W 003°09'510.3
2018-Jun-12 04:30N 43°34' W 003°12'5 9.7
2018-Jun-12 03:59N 43°38' W 003°14'4 9.2
2018-Jun-12 03:30N 43°43' W 003°16'5 8.2
2018-Jun-12 02:52N 43°48' W 003°19'26110.4
2018-Jun-11 01:48N 47°52' W 005°30'810.0
2018-Jun-11 00:58N 48°00' W 005°34'10 9.7
2018-Jun-10 23:59N 48°09' W 005°39'10 9.6
2018-Jun-10 22:58N 48°18' W 005°44'10 9.6
2018-Jun-10 21:58N 48°27' W 005°49'1110.3
2018-Jun-10 20:53N 48°38' W 005°55'810.1
2018-Jun-10 20:05N 48°46' W 005°52'111.4
2018-Jun-10 19:58N 48°47' W 005°51'811.3
2018-Jun-10 19:14N 48°54' W 005°44'  
Track history (hours):
 
Tides and Currents Weather Stations Pressure Air Temp Water Temp Dewpoint Dewpoint Depression Visibility Wind Speed Wind Dir Waves Ship Positions

MV Schillig

Last reported at 2018-Jun-20 19:00 UTC. Time now 2018-Jun-20 19:00 UTC.
Position N 51°38' E 001°45'.

Length 86 m; draft 3.8 m.

Type: Ship. MMSI: 236111817.

Date/timePositionNaut miles runAvg speedWind from/ knotsBaromVisibWave heightAir tempDewpointWater temp
2018-Jun-20 19:00N 51°38' E 001°45'4 7.7
2018-Jun-20 18:30N 51°42' E 001°44'4 7.9
2018-Jun-20 18:00N 51°46' E 001°43'4 8.2
2018-Jun-20 17:31N 51°50' E 001°43'4 8.6
2018-Jun-20 17:01N 51°54' E 001°44'5 9.3
2018-Jun-20 16:30N 51°59' E 001°44'5 9.7
2018-Jun-20 16:01N 52°04' E 001°46'510.0
2018-Jun-20 15:30N 52°09' E 001°47'510.2
2018-Jun-20 15:00N 52°14' E 001°48'510.4
2018-Jun-20 14:30N 52°19' E 001°49'510.5
2018-Jun-20 14:00N 52°24' E 001°50'911.1
2018-Jun-20 13:14N 52°33' E 001°52'100 8.6
2018-Jun-20 01:34N 53°54' E 000°15'2 8.0
2018-Jun-20 01:23N 53°56' E 000°13'7 8.1
2018-Jun-20 00:28N 54°02' E 000°06'4 8.7
2018-Jun-20 00:00N 54°05' E 000°02'4 8.9
2018-Jun-19 23:30N 54°09' W 000°02'5 9.5
2018-Jun-19 23:00N 54°12' W 000°08'5 9.8
2018-Jun-19 22:31N 54°16' W 000°13'5 9.8
2018-Jun-19 22:00N 54°20' W 000°18'510.0
2018-Jun-19 21:31N 54°24' W 000°24'5 0.2
2018-Jun-18 14:12N 54°28' W 000°28'211.6
2018-Jun-18 14:00N 54°26' W 000°26'611.7
2018-Jun-18 13:31N 54°22' W 000°19'611.6
2018-Jun-18 13:01N 54°17' W 000°12'611.7
2018-Jun-18 12:30N 54°13' W 000°06'612.2
2018-Jun-18 12:00N 54°08' E 000°01'611.7
2018-Jun-18 11:30N 54°03' E 000°06'711.0
2018-Jun-18 10:53N 53°57' E 000°12'52 9.1
2018-Jun-18 05:11N 53°17' E 001°07'211.4
2018-Jun-18 05:00N 53°15' E 001°09'611.8
2018-Jun-18 04:30N 53°11' E 001°16'612.0
2018-Jun-18 04:00N 53°07' E 001°23'611.8
2018-Jun-18 03:30N 53°03' E 001°30'611.5
2018-Jun-18 03:01N 52°58' E 001°35'611.4
2018-Jun-18 02:31N 52°53' E 001°40'510.6
2018-Jun-18 02:01N 52°48' E 001°44'5 9.9
2018-Jun-18 01:30N 52°44' E 001°48'5 9.0
2018-Jun-18 01:00N 52°40' E 001°51'5 7.7
2018-Jun-18 00:20N 52°35' E 001°53'17 7.6
2018-Jun-17 22:07N 52°18' E 001°51'1 8.3
2018-Jun-17 22:00N 52°17' E 001°51'4 8.7
2018-Jun-17 21:30N 52°13' E 001°50'5 9.5
2018-Jun-17 21:01N 52°08' E 001°50'510.2
2018-Jun-17 20:31N 52°03' E 001°50'5 9.7
2018-Jun-17 20:00N 51°58' E 001°49'612.0
2018-Jun-17 19:30N 51°52' E 001°48'611.9
2018-Jun-17 19:00N 51°46' E 001°49'612.0
2018-Jun-17 18:30N 51°40' E 001°49'612.2
2018-Jun-17 18:00N 51°34' E 001°48'612.5
2018-Jun-17 17:30N 51°28' E 001°46'612.9
2018-Jun-17 17:00N 51°22' E 001°42'713.3
2018-Jun-17 16:30N 51°15' E 001°39'612.5
2018-Jun-17 16:00N 51°09' E 001°36'5 9.7
2018-Jun-17 15:30N 51°05' E 001°39'713.6
2018-Jun-17 15:01N 50°59' E 001°33'713.7
2018-Jun-17 14:30N 50°54' E 001°27'2911.8
2018-Jun-17 12:04N 50°31' E 000°59'3912.0
2018-Jun-17 08:51N 50°20' E 000°01'610.6
2018-Jun-17 08:15N 50°19' W 000°09'310.1
2018-Jun-17 07:58N 50°18' W 000°13'85 9.3
2018-Jun-16 22:52N 49°55' W 002°21'1213.0
2018-Jun-16 21:58N 49°51' W 002°38'712.9
2018-Jun-16 21:24N 49°49' W 002°48'512.7
2018-Jun-16 21:01N 49°47' W 002°56'612.5
2018-Jun-16 20:30N 49°44' W 003°04'612.3
2018-Jun-16 20:00N 49°41' W 003°12'612.2
2018-Jun-16 19:28N 49°37' W 003°21'612.1
2018-Jun-16 18:58N 49°34' W 003°29'1711.7
2018-Jun-16 17:30N 49°25' W 003°52'611.4
2018-Jun-16 17:00N 49°23' W 003°59'710.9
2018-Jun-16 16:21N 49°19' W 004°09'48 9.0
2018-Jun-16 11:01N 48°55' W 005°12'0 8.5
2018-Jun-16 10:58N 48°55' W 005°13'47 7.8
2018-Jun-16 04:58N 48°10' W 005°30'1111.0
2018-Jun-16 03:58N 47°59' W 005°24'2411.5
2018-Jun-16 01:54N 47°37' W 005°12'232 9.8
2018-Jun-15 02:14N 43°58' W 003°21'2 9.6
2018-Jun-15 01:59N 43°55' W 003°20'5 9.7
2018-Jun-15 01:30N 43°51' W 003°18'510.1
2018-Jun-15 01:01N 43°47' W 003°16'510.4
2018-Jun-15 00:31N 43°42' W 003°13'510.3
2018-Jun-15 00:01N 43°37' W 003°11'510.2
2018-Jun-14 23:30N 43°32' W 003°08'5 9.7
2018-Jun-14 23:00N 43°27' W 003°07'5 9.9
2018-Jun-14 22:31N 43°23' W 003°05'2 3.2
2018-Jun-14 22:00N 43°21' W 003°04'0 0.0
2018-Jun-14 21:30N 43°21' W 003°04'0 0.0
2018-Jun-14 21:00N 43°21' W 003°04'0 0.0
2018-Jun-14 20:30N 43°21' W 003°04'0 0.0
2018-Jun-14 20:00N 43°21' W 003°04'0 0.0
2018-Jun-14 19:30N 43°21' W 003°04'0 0.0
2018-Jun-14 19:00N 43°21' W 003°04'0 0.0
2018-Jun-14 18:27N 43°21' W 003°04'0 0.0
2018-Jun-14 18:00N 43°21' W 003°04'0 0.0
2018-Jun-14 17:30N 43°21' W 003°04'0 0.0
2018-Jun-14 17:00N 43°21' W 003°04'0 0.0
2018-Jun-14 16:30N 43°21' W 003°04'0 0.0
2018-Jun-14 16:00N 43°21' W 003°04'0 0.0
2018-Jun-14 15:30N 43°21' W 003°04'0 0.0
2018-Jun-14 15:00N 43°21' W 003°04'0 0.0
2018-Jun-14 14:30N 43°21' W 003°04'0 0.0
2018-Jun-14 14:00N 43°21' W 003°04'0 0.0
2018-Jun-14 13:30N 43°21' W 003°04'0 0.0
2018-Jun-14 13:00N 43°21' W 003°04'0 0.0
2018-Jun-14 12:30N 43°21' W 003°04'0 0.0
2018-Jun-14 12:00N 43°21' W 003°04'0 0.0
2018-Jun-14 11:30N 43°21' W 003°04'0 0.0
2018-Jun-14 11:00N 43°21' W 003°04'0 0.0
2018-Jun-14 10:30N 43°21' W 003°04'0 0.0
2018-Jun-14 09:57N 43°21' W 003°04'0 0.0
2018-Jun-14 09:30N 43°21' W 003°04'0 0.0
2018-Jun-14 09:00N 43°21' W 003°04'0 0.0
2018-Jun-14 08:27N 43°21' W 003°04'0 0.0
2018-Jun-14 08:00N 43°21' W 003°04'0 0.0
2018-Jun-14 07:30N 43°21' W 003°04'0 0.0
2018-Jun-14 07:00N 43°21' W 003°04'0 0.0
2018-Jun-14 06:30N 43°21' W 003°04'0 0.0
2018-Jun-14 06:00N 43°21' W 003°04'0 0.0
2018-Jun-14 05:30N 43°21' W 003°04'0 0.0
2018-Jun-14 05:00N 43°21' W 003°04'0 0.0
2018-Jun-14 04:30N 43°21' W 003°04'0 0.0
2018-Jun-14 04:00N 43°21' W 003°04'0 0.0
2018-Jun-14 03:27N 43°21' W 003°04'0 0.0
2018-Jun-14 03:00N 43°21' W 003°04'0 0.0
2018-Jun-14 02:27N 43°21' W 003°04'0 0.0
2018-Jun-14 02:00N 43°21' W 003°04'0 0.0
2018-Jun-14 01:30N 43°21' W 003°04'0 0.0
2018-Jun-14 01:00N 43°21' W 003°04'0 0.0
2018-Jun-14 00:24N 43°21' W 003°04'0 0.0
2018-Jun-14 00:00N 43°21' W 003°04'0 0.0
2018-Jun-13 23:30N 43°21' W 003°04'0 0.0
2018-Jun-13 23:00N 43°21' W 003°04'0 0.5
2018-Jun-13 22:30N 43°21' W 003°04'2 4.0
2018-Jun-13 22:01N 43°23' W 003°05'2 3.4
2018-Jun-13 21:28N 43°23' W 003°08'0 0.1
2018-Jun-13 20:55N 43°23' W 003°08'0 0.1
2018-Jun-13 20:25N 43°23' W 003°08'0 0.0
2018-Jun-13 19:58N 43°23' W 003°08'0 0.0
2018-Jun-13 19:28N 43°23' W 003°08'0 0.0
2018-Jun-13 18:58N 43°23' W 003°08'0 0.0
2018-Jun-13 18:28N 43°23' W 003°08'0 0.0
2018-Jun-13 17:58N 43°23' W 003°08'0 0.0
2018-Jun-13 17:28N 43°23' W 003°08'0 0.0
2018-Jun-13 16:58N 43°23' W 003°08'0 0.0
2018-Jun-13 16:28N 43°23' W 003°08'0 0.0
2018-Jun-13 15:55N 43°23' W 003°08'0 0.0
2018-Jun-13 15:28N 43°23' W 003°08'0 0.0
2018-Jun-13 14:55N 43°23' W 003°08'0 0.0
2018-Jun-13 14:28N 43°23' W 003°08'0 0.0
2018-Jun-13 13:49N 43°23' W 003°08'0 0.0
2018-Jun-13 13:28N 43°23' W 003°08'0 0.0
2018-Jun-13 12:58N 43°23' W 003°08'0 0.1
2018-Jun-13 12:28N 43°23' W 003°08'0 0.0
2018-Jun-13 11:58N 43°23' W 003°08'0 0.1
2018-Jun-13 11:28N 43°23' W 003°08'0 0.0
2018-Jun-13 10:58N 43°23' W 003°08'0 0.0
2018-Jun-13 10:28N 43°23' W 003°08'0 0.1
2018-Jun-13 09:58N 43°23' W 003°08'0 0.0
2018-Jun-13 09:28N 43°23' W 003°08'0 0.0
2018-Jun-13 08:58N 43°23' W 003°08'0 0.0
2018-Jun-13 08:28N 43°23' W 003°08'0 0.0
2018-Jun-13 07:58N 43°23' W 003°08'0 0.0
2018-Jun-13 07:28N 43°23' W 003°08'0 0.0
2018-Jun-13 06:58N 43°23' W 003°08'0 0.0
2018-Jun-13 06:28N 43°23' W 003°08'0 0.0
2018-Jun-13 05:58N 43°23' W 003°08'0 0.0
2018-Jun-13 05:28N 43°23' W 003°08'0 0.0
2018-Jun-13 04:58N 43°23' W 003°08'0 0.0
2018-Jun-13 04:28N 43°23' W 003°08'0 0.0
2018-Jun-13 03:58N 43°23' W 003°08'0 0.0
2018-Jun-13 03:28N 43°23' W 003°08'0 0.0
2018-Jun-13 02:58N 43°23' W 003°08'0 0.0
2018-Jun-13 02:28N 43°23' W 003°08'0 0.0
2018-Jun-13 01:58N 43°23' W 003°08'0 0.0
2018-Jun-13 01:28N 43°23' W 003°08'0 0.0
2018-Jun-13 00:58N 43°23' W 003°08'0 0.0
2018-Jun-13 00:28N 43°23' W 003°08'0 0.0
2018-Jun-12 23:58N 43°23' W 003°08'0 0.0
2018-Jun-12 23:28N 43°23' W 003°08'0 0.0
2018-Jun-12 22:58N 43°23' W 003°08'0 0.0
2018-Jun-12 22:28N 43°23' W 003°08'0 0.0
2018-Jun-12 21:58N 43°23' W 003°08'0 0.0
2018-Jun-12 21:25N 43°23' W 003°08'0 0.0
2018-Jun-12 20:58N 43°23' W 003°08'0 0.0
2018-Jun-12 20:28N 43°23' W 003°08'0 0.0
2018-Jun-12 19:58N 43°23' W 003°08'0 0.0
2018-Jun-12 19:28N 43°23' W 003°08'0 0.0
2018-Jun-12 18:58N 43°23' W 003°08'0 0.0
2018-Jun-12 18:28N 43°23' W 003°08'0 0.0
2018-Jun-12 17:58N 43°23' W 003°08'0 0.0
2018-Jun-12 17:28N 43°23' W 003°08'0 0.0
2018-Jun-12 16:58N 43°23' W 003°08'0 0.0
2018-Jun-12 16:25N 43°23' W 003°08'0 0.0
2018-Jun-12 15:58N 43°23' W 003°08'0 0.5
2018-Jun-12 15:30N 43°22' W 003°08'1 1.0
2018-Jun-12 14:59N 43°22' W 003°07'0 0.0
2018-Jun-12 14:26N 43°22' W 003°07'0 0.0
2018-Jun-12 13:59N 43°22' W 003°07'0 0.0
2018-Jun-12 13:29N 43°22' W 003°07'0 0.0
2018-Jun-12 12:56N 43°22' W 003°07'0 0.0
2018-Jun-12 12:29N 43°22' W 003°07'0 0.0
2018-Jun-12 11:59N 43°22' W 003°07'0 0.0
2018-Jun-12 11:29N 43°22' W 003°07'0 0.0
2018-Jun-12 10:59N 43°22' W 003°07'0 0.0
2018-Jun-12 10:29N 43°22' W 003°07'0 0.0
2018-Jun-12 09:59N 43°22' W 003°07'0 0.0
2018-Jun-12 09:29N 43°22' W 003°07'0 0.0
2018-Jun-12 08:56N 43°22' W 003°07'0 0.0
2018-Jun-12 08:29N 43°22' W 003°07'0 0.0
2018-Jun-12 07:59N 43°22' W 003°07'0 0.0
2018-Jun-12 07:29N 43°22' W 003°07'0 0.0
2018-Jun-12 06:59N 43°22' W 003°07'0 0.0
2018-Jun-12 06:29N 43°22' W 003°07'0 0.0
2018-Jun-12 06:01N 43°22' W 003°07'2 3.9
2018-Jun-12 05:30N 43°24' W 003°07'510.3
2018-Jun-12 05:01N 43°29' W 003°09'510.3
2018-Jun-12 04:30N 43°34' W 003°12'5 9.7
2018-Jun-12 03:59N 43°38' W 003°14'4 9.2
2018-Jun-12 03:30N 43°43' W 003°16'5 8.2
2018-Jun-12 02:52N 43°48' W 003°19'26110.4
2018-Jun-11 01:48N 47°52' W 005°30'810.0
2018-Jun-11 00:58N 48°00' W 005°34'10 9.7
2018-Jun-10 23:59N 48°09' W 005°39'10 9.6
2018-Jun-10 22:58N 48°18' W 005°44'10 9.6
2018-Jun-10 21:58N 48°27' W 005°49'1110.3
2018-Jun-10 20:53N 48°38' W 005°55'810.1
2018-Jun-10 20:05N 48°46' W 005°52'111.4
2018-Jun-10 19:58N 48°47' W 005°51'811.3
2018-Jun-10 19:14N 48°54' W 005°44'  

Dump ship's entire track history